Time;durP1;ratioP1;P1;durP2;ratioP2;P2;SDS_P1;SDS_P2;PMS_P1;PMS_P2;Temp;Humidity;BMP_temperature;BMP_pressure;BME280_temperature;BME280_humidity;BME280_pressure;Samples;Min_cycle;Max_cycle;Signal;HPM_P1;HPM_P2
2021/05/09 00:00:42;;;;;;;6.25;5.72;;;;;;;;;;5114322;28;20291;-77
2021/05/09 00:03:08;;;;;;;7.75;6.30;;;;;;;;;;5116234;28;20203;-78
2021/05/09 00:05:34;;;;;;;6.93;6.32;;;;;;;;;;5116514;28;20528;-77
2021/05/09 00:08:00;;;;;;;6.53;5.95;;;;;;;;;;5107885;28;20199;-76
2021/05/09 00:10:27;;;;;;;6.05;5.47;;;;;;;;;;5118555;27;20182;-76
2021/05/09 00:12:53;;;;;;;6.07;5.57;;;;;;;;;;5124419;27;20185;-77
2021/05/09 00:15:22;;;;;;;6.05;5.55;;;;;;;;;;5123229;27;20175;-77
2021/05/09 00:17:48;;;;;;;5.68;5.18;;;;;;;;;;5127408;27;20662;-77
2021/05/09 00:20:14;;;;;;;6.85;6.25;;;;;;;;;;5114861;27;20250;-75
2021/05/09 00:22:40;;;;;;;5.72;5.32;;;;;;;;;;5114466;28;20216;-76
2021/05/09 00:25:06;;;;;;;5.90;5.40;;;;;;;;;;5115969;28;20177;-80
2021/05/09 00:27:32;;;;;;;5.35;4.95;;;;;;;;;;5116930;27;20250;-78
2021/05/09 00:29:59;;;;;;;5.40;4.90;;;;;;;;;;5111277;28;20179;-80
2021/05/09 00:32:25;;;;;;;5.25;4.72;;;;;;;;;;5111453;28;20178;-77
2021/05/09 00:34:51;;;;;;;5.40;4.90;;;;;;;;;;5118298;27;20178;-79
2021/05/09 00:37:17;;;;;;;5.53;5.13;;;;;;;;;;5136481;27;20280;-77
2021/05/09 00:39:44;;;;;;;8.43;5.53;;;;;;;;;;5109924;27;20495;-75
2021/05/09 00:42:10;;;;;;;5.63;5.13;;;;;;;;;;5136293;27;20626;-78
2021/05/09 00:44:36;;;;;;;6.18;5.57;;;;;;;;;;5108559;27;20189;-75
2021/05/09 00:47:06;;;;;;;5.80;5.30;;;;;;;;;;5123113;27;20411;-76
2021/05/09 00:49:32;;;;;;;5.53;5.03;;;;;;;;;;5121352;27;20810;-77
2021/05/09 00:51:59;;;;;;;5.40;4.95;;;;;;;;;;5125588;27;20273;-77
2021/05/09 00:54:26;;;;;;;6.05;5.55;;;;;;;;;;5121917;27;20538;-77
2021/05/09 00:56:54;;;;;;;5.80;5.30;;;;;;;;;;5106459;27;20207;-76
2021/05/09 00:59:20;;;;;;;6.25;5.65;;;;;;;;;;5118462;27;20269;-76
2021/05/09 01:01:47;;;;;;;5.93;5.53;;;;;;;;;;5113844;28;20186;-78
2021/05/09 01:04:14;;;;;;;5.85;5.35;;;;;;;;;;5118974;27;20798;-77
2021/05/09 01:06:44;;;;;;;7.80;6.10;;;;;;;;;;5123098;27;20176;-79
2021/05/09 01:09:10;;;;;;;7.32;5.53;;;;;;;;;;5115068;27;20190;-78
2021/05/09 01:11:36;;;;;;;5.53;5.10;;;;;;;;;;5118984;27;20286;-76
2021/05/09 01:14:03;;;;;;;5.57;5.07;;;;;;;;;;5126887;27;20804;-77
2021/05/09 01:16:29;;;;;;;5.82;5.32;;;;;;;;;;5114181;27;20287;-76
2021/05/09 01:18:55;;;;;;;6.50;5.90;;;;;;;;;;5124493;27;20635;-75
2021/05/09 01:21:21;;;;;;;5.90;5.20;;;;;;;;;;5118530;27;20485;-76
2021/05/09 01:23:48;;;;;;;5.20;4.80;;;;;;;;;;5119080;27;20228;-78
2021/05/09 01:26:14;;;;;;;5.75;5.30;;;;;;;;;;5113072;28;20566;-76
2021/05/09 01:28:40;;;;;;;5.10;4.70;;;;;;;;;;5114318;27;20199;-76
2021/05/09 01:31:06;;;;;;;4.90;4.40;;;;;;;;;;5107643;28;20983;-76
2021/05/09 01:33:32;;;;;;;5.20;4.70;;;;;;;;;;5119582;27;20427;-79
2021/05/09 01:35:58;;;;;;;6.93;4.70;;;;;;;;;;5124523;27;20504;-78
2021/05/09 01:38:24;;;;;;;5.13;4.72;;;;;;;;;;5130576;27;20442;-78
2021/05/09 01:40:54;;;;;;;5.45;4.38;;;;;;;;;;5133713;27;20573;-78
2021/05/09 01:43:20;;;;;;;5.82;5.30;;;;;;;;;;5130615;27;20893;-76
2021/05/09 01:45:48;;;;;;;5.70;5.10;;;;;;;;;;5120532;27;20175;-77
2021/05/09 01:48:14;;;;;;;5.18;4.78;;;;;;;;;;5127194;27;20889;-76
2021/05/09 01:50:40;;;;;;;4.70;4.33;;;;;;;;;;5114189;28;20182;-77
2021/05/09 01:53:06;;;;;;;5.20;4.67;;;;;;;;;;5124997;27;20420;-77
2021/05/09 01:55:32;;;;;;;4.80;4.47;;;;;;;;;;5114897;27;20415;-78
2021/05/09 01:58:03;;;;;;;5.28;4.88;;;;;;;;;;5117017;27;20474;-77
2021/05/09 02:00:29;;;;;;;5.00;4.55;;;;;;;;;;5115472;27;20296;-78
2021/05/09 02:02:57;;;;;;;4.47;4.17;;;;;;;;;;5112658;27;20240;-75
2021/05/09 02:05:23;;;;;;;5.60;5.05;;;;;;;;;;5113789;28;20428;-77
2021/05/09 02:07:49;;;;;;;5.20;4.60;;;;;;;;;;5127868;27;20258;-77
2021/05/09 02:10:16;;;;;;;4.90;4.50;;;;;;;;;;5114022;28;20407;-78
2021/05/09 02:12:46;;;;;;;5.18;4.78;;;;;;;;;;5108867;28;21033;-79
2021/05/09 02:15:12;;;;;;;4.50;4.10;;;;;;;;;;5123344;27;20177;-77
2021/05/09 02:17:43;;;;;;;5.03;4.63;;;;;;;;;;5112955;28;20322;-76
2021/05/09 02:20:13;;;;;;;4.50;4.10;;;;;;;;;;5109994;28;20175;-74
2021/05/09 02:22:42;;;;;;;4.63;4.22;;;;;;;;;;5117860;27;20175;-76
2021/05/09 02:25:19;;;;;;;5.38;4.80;;;;;;;;;;5106662;28;20297;-75
2021/05/09 02:27:45;;;;;;;5.43;4.95;;;;;;;;;;5114117;28;20186;-74
2021/05/09 02:30:14;;;;;;;4.75;4.35;;;;;;;;;;5108447;28;20644;-74
2021/05/09 02:32:40;;;;;;;5.15;4.60;;;;;;;;;;5104566;28;20647;-75
2021/05/09 02:35:17;;;;;;;4.40;4.03;;;;;;;;;;5113290;28;20662;-76
2021/05/09 02:37:59;;;;;;;5.18;4.40;;;;;;;;;;5123077;28;20198;-77
2021/05/09 02:40:27;;;;;;;5.43;5.03;;;;;;;;;;5117440;28;20166;-75
2021/05/09 02:42:53;;;;;;;4.80;4.40;;;;;;;;;;5122529;28;20174;-75
2021/05/09 02:45:21;;;;;;;5.17;4.67;;;;;;;;;;5113423;28;20193;-76
2021/05/09 02:47:47;;;;;;;5.00;4.60;;;;;;;;;;5105756;28;20432;-77
2021/05/09 02:50:13;;;;;;;5.37;4.90;;;;;;;;;;5128323;28;20256;-77
2021/05/09 02:52:39;;;;;;;5.00;4.60;;;;;;;;;;5107121;28;20469;-75
2021/05/09 02:55:05;;;;;;;4.73;4.33;;;;;;;;;;5117516;28;20635;-77
2021/05/09 02:57:32;;;;;;;5.03;4.57;;;;;;;;;;5109112;28;20798;-77
2021/05/09 02:59:59;;;;;;;4.95;4.55;;;;;;;;;;5129553;28;20166;-76
2021/05/09 03:02:25;;;;;;;5.38;4.88;;;;;;;;;;5103637;28;20204;-75
2021/05/09 03:04:51;;;;;;;5.17;4.77;;;;;;;;;;5115868;28;20217;-77
2021/05/09 03:07:17;;;;;;;4.90;4.50;;;;;;;;;;5125639;28;20403;-77
2021/05/09 03:09:43;;;;;;;5.20;4.70;;;;;;;;;;5115605;28;20454;-77
2021/05/09 03:12:10;;;;;;;4.57;4.18;;;;;;;;;;5109349;28;20489;-76
2021/05/09 03:14:36;;;;;;;5.15;4.63;;;;;;;;;;5117808;28;20183;-77
2021/05/09 03:17:04;;;;;;;6.47;5.10;;;;;;;;;;5114322;28;20309;-79
2021/05/09 03:19:30;;;;;;;4.63;4.22;;;;;;;;;;5102718;28;20673;-76
2021/05/09 03:22:02;;;;;;;5.47;4.97;;;;;;;;;;5118546;28;20204;-77
2021/05/09 03:24:29;;;;;;;4.82;4.32;;;;;;;;;;5123168;28;20427;-77
2021/05/09 03:26:55;;;;;;;5.50;4.90;;;;;;;;;;5102352;28;20184;-76
2021/05/09 03:29:24;;;;;;;5.47;4.90;;;;;;;;;;5113480;28;20527;-76
2021/05/09 03:31:50;;;;;;;4.85;4.32;;;;;;;;;;5117645;27;20428;-75
2021/05/09 03:34:20;;;;;;;5.00;4.60;;;;;;;;;;5116833;28;20299;-77
2021/05/09 03:36:49;;;;;;;4.03;3.72;;;;;;;;;;5122248;27;20403;-75
2021/05/09 03:39:20;;;;;;;5.00;4.60;;;;;;;;;;5113763;27;20220;-75
2021/05/09 03:41:46;;;;;;;4.80;4.40;;;;;;;;;;5135918;27;20177;-76
2021/05/09 03:44:12;;;;;;;4.73;4.33;;;;;;;;;;5114119;27;20180;-76
2021/05/09 03:46:38;;;;;;;5.23;4.50;;;;;;;;;;5136160;27;20760;-77
2021/05/09 03:49:04;;;;;;;5.10;4.67;;;;;;;;;;5116225;27;20994;-76
2021/05/09 03:51:32;;;;;;;5.18;4.78;;;;;;;;;;5136226;27;20404;-76
2021/05/09 03:53:58;;;;;;;4.63;4.22;;;;;;;;;;5104204;27;20257;-76
2021/05/09 03:56:24;;;;;;;4.40;4.10;;;;;;;;;;5123617;27;20684;-76
2021/05/09 03:58:50;;;;;;;5.88;5.47;;;;;;;;;;5113004;27;20581;-78
2021/05/09 04:01:16;;;;;;;4.83;4.33;;;;;;;;;;5117607;27;20175;-75
2021/05/09 04:03:42;;;;;;;4.70;4.30;;;;;;;;;;5114476;28;20419;-76
2021/05/09 04:06:18;;;;;;;4.60;4.30;;;;;;;;;;5123623;27;20432;-76
2021/05/09 04:08:44;;;;;;;4.20;3.80;;;;;;;;;;5129291;27;20197;-75
2021/05/09 04:11:12;;;;;;;4.53;4.23;;;;;;;;;;5136712;27;20519;-76
2021/05/09 04:13:47;;;;;;;4.85;4.35;;;;;;;;;;5109039;27;20409;-77
2021/05/09 04:16:17;;;;;;;3.83;3.53;;;;;;;;;;5125129;27;20612;-75
2021/05/09 04:18:44;;;;;;;4.55;4.15;;;;;;;;;;5122877;27;20218;-75
2021/05/09 04:21:11;;;;;;;4.07;3.67;;;;;;;;;;5110599;27;20536;-75
2021/05/09 04:23:39;;;;;;;4.95;3.80;;;;;;;;;;5135750;27;20572;-75
2021/05/09 04:26:05;;;;;;;4.60;4.05;;;;;;;;;;5118077;27;20637;-77
2021/05/09 04:28:32;;;;;;;4.90;4.47;;;;;;;;;;5123604;27;20273;-76
2021/05/09 04:30:58;;;;;;;6.97;4.25;;;;;;;;;;5119915;27;20932;-77
2021/05/09 04:33:26;;;;;;;4.78;4.38;;;;;;;;;;5112000;27;20194;-76
2021/05/09 04:35:59;;;;;;;5.32;4.30;;;;;;;;;;5118776;27;20174;-76
2021/05/09 04:38:25;;;;;;;4.40;4.00;;;;;;;;;;5130715;27;20210;-75
2021/05/09 04:40:51;;;;;;;4.27;3.97;;;;;;;;;;5119745;27;20252;-74
2021/05/09 04:43:21;;;;;;;4.13;3.80;;;;;;;;;;5126974;27;20469;-75
2021/05/09 04:45:54;;;;;;;4.60;4.20;;;;;;;;;;5136012;27;20177;-78
2021/05/09 04:48:25;;;;;;;6.45;4.13;;;;;;;;;;5116796;27;20201;-77
2021/05/09 04:50:51;;;;;;;4.10;3.80;;;;;;;;;;5108556;27;20193;-76
2021/05/09 04:53:31;;;;;;;4.55;4.25;;;;;;;;;;5116108;27;20261;-75
2021/05/09 04:56:09;;;;;;;5.15;3.75;;;;;;;;;;5129511;27;20258;-76
2021/05/09 04:58:43;;;;;;;4.65;3.20;;;;;;;;;;5114746;28;20559;-75
2021/05/09 05:01:11;;;;;;;3.65;3.35;;;;;;;;;;5111340;28;20257;-77
2021/05/09 05:03:42;;;;;;;4.47;4.07;;;;;;;;;;5124139;27;20189;-75
2021/05/09 05:06:08;;;;;;;4.00;3.70;;;;;;;;;;5135618;27;20192;-75
2021/05/09 05:08:34;;;;;;;4.25;3.85;;;;;;;;;;5125097;27;20230;-76
2021/05/09 05:11:05;;;;;;;4.10;3.70;;;;;;;;;;5130863;27;20504;-77
2021/05/09 05:13:32;;;;;;;3.60;3.30;;;;;;;;;;5119132;27;20182;-77
2021/05/09 05:15:59;;;;;;;4.25;3.85;;;;;;;;;;5119914;27;20194;-75
2021/05/09 05:18:25;;;;;;;4.30;4.00;;;;;;;;;;5125528;27;20203;-75
2021/05/09 05:21:05;;;;;;;4.57;3.75;;;;;;;;;;5132383;27;20261;-76
2021/05/09 05:23:32;;;;;;;3.60;3.30;;;;;;;;;;5124231;27;20176;-76
2021/05/09 05:25:58;;;;;;;4.38;3.95;;;;;;;;;;5116622;27;20206;-74
2021/05/09 05:28:24;;;;;;;4.40;4.00;;;;;;;;;;5111030;27;20315;-75
2021/05/09 05:30:50;;;;;;;4.72;4.07;;;;;;;;;;5107176;27;20185;-77
2021/05/09 05:33:27;;;;;;;3.97;3.67;;;;;;;;;;5110567;28;20178;-74
2021/05/09 05:35:53;;;;;;;4.25;3.47;;;;;;;;;;5111533;27;20494;-75
2021/05/09 05:38:19;;;;;;;4.65;3.88;;;;;;;;;;5132216;27;20198;-76
2021/05/09 05:40:47;;;;;;;3.97;3.67;;;;;;;;;;5112216;27;20591;-76
2021/05/09 05:43:13;;;;;;;4.55;4.15;;;;;;;;;;5121743;27;20964;-76
2021/05/09 05:45:39;;;;;;;3.67;3.37;;;;;;;;;;5125415;27;20257;-75
2021/05/09 05:48:05;;;;;;;3.73;3.43;;;;;;;;;;5119153;27;20424;-76
2021/05/09 05:50:31;;;;;;;4.28;3.88;;;;;;;;;;5121642;27;20418;-76
2021/05/09 05:52:57;;;;;;;4.20;3.80;;;;;;;;;;5133674;27;20177;-76
2021/05/09 05:55:23;;;;;;;4.30;3.90;;;;;;;;;;5114180;28;20416;-76
2021/05/09 05:57:49;;;;;;;4.18;3.83;;;;;;;;;;5123319;27;20179;-75
2021/05/09 06:00:15;;;;;;;4.00;3.60;;;;;;;;;;5118918;27;20673;-77
2021/05/09 06:02:41;;;;;;;4.25;3.90;;;;;;;;;;5111176;27;20969;-77
2021/05/09 06:05:08;;;;;;;4.47;3.70;;;;;;;;;;5122235;27;20273;-76
2021/05/09 06:07:34;;;;;;;4.05;3.72;;;;;;;;;;5126747;27;20410;-75
2021/05/09 06:10:00;;;;;;;4.53;4.13;;;;;;;;;;5113671;28;20174;-75
2021/05/09 06:12:26;;;;;;;4.90;4.03;;;;;;;;;;5118443;27;20431;-76
2021/05/09 06:14:52;;;;;;;5.40;4.57;;;;;;;;;;5114112;27;20431;-74
2021/05/09 06:17:18;;;;;;;4.43;3.57;;;;;;;;;;5121382;27;20427;-77
2021/05/09 06:19:44;;;;;;;3.93;3.30;;;;;;;;;;5108198;27;20471;-77
2021/05/09 06:22:10;;;;;;;5.07;3.70;;;;;;;;;;5108800;28;20909;-77
2021/05/09 06:24:35;;;;;;;3.60;3.30;;;;;;;;;;5121569;27;20404;-76
2021/05/09 06:27:01;;;;;;;3.30;3.00;;;;;;;;;;5110982;27;20452;-76
2021/05/09 06:29:27;;;;;;;4.77;3.53;;;;;;;;;;5118451;27;20530;-76
2021/05/09 06:31:53;;;;;;;3.70;3.40;;;;;;;;;;5132481;27;20412;-76
2021/05/09 06:34:19;;;;;;;3.87;3.47;;;;;;;;;;5108397;28;20409;-75
2021/05/09 06:36:45;;;;;;;3.50;3.20;;;;;;;;;;5114693;28;20467;-76
2021/05/09 06:39:12;;;;;;;3.50;3.20;;;;;;;;;;5121935;28;20513;-75
2021/05/09 06:41:38;;;;;;;3.27;2.97;;;;;;;;;;5113487;28;20909;-75
2021/05/09 06:44:08;;;;;;;5.03;3.40;;;;;;;;;;5120836;28;20428;-74
2021/05/09 06:46:34;;;;;;;4.10;3.70;;;;;;;;;;5118630;28;20483;-76
2021/05/09 06:49:01;;;;;;;4.43;4.03;;;;;;;;;;5131080;28;20431;-76
2021/05/09 06:51:27;;;;;;;3.30;3.00;;;;;;;;;;5121798;28;20429;-76
2021/05/09 06:53:55;;;;;;;4.17;3.77;;;;;;;;;;5107643;28;20491;-78
2021/05/09 06:56:21;;;;;;;3.70;3.20;;;;;;;;;;5113485;28;20761;-74
2021/05/09 06:58:47;;;;;;;3.93;3.53;;;;;;;;;;5127670;28;20461;-76
2021/05/09 07:01:13;;;;;;;4.93;3.40;;;;;;;;;;5113317;28;20402;-75
2021/05/09 07:03:39;;;;;;;3.63;3.33;;;;;;;;;;5132147;28;20656;-76
2021/05/09 07:06:05;;;;;;;3.43;3.13;;;;;;;;;;5130860;27;20427;-76
2021/05/09 07:08:31;;;;;;;3.17;2.80;;;;;;;;;;5114568;27;20452;-75
2021/05/09 07:10:57;;;;;;;3.23;2.90;;;;;;;;;;5122219;27;20419;-77
2021/05/09 07:13:23;;;;;;;5.33;3.37;;;;;;;;;;5112158;28;20419;-77
2021/05/09 07:15:50;;;;;;;3.00;2.73;;;;;;;;;;5121535;27;20439;-76
2021/05/09 07:18:20;;;;;;;3.80;2.97;;;;;;;;;;5126934;27;20450;-76
2021/05/09 07:20:50;;;;;;;3.67;3.07;;;;;;;;;;5117369;27;20416;-75
2021/05/09 07:23:16;;;;;;;3.07;2.77;;;;;;;;;;5118764;27;20445;-77
2021/05/09 07:25:42;;;;;;;4.87;3.43;;;;;;;;;;5119156;27;21025;-77
2021/05/09 07:28:10;;;;;;;3.57;3.27;;;;;;;;;;5112858;28;20427;-76
2021/05/09 07:30:37;;;;;;;3.57;3.27;;;;;;;;;;5127198;27;20494;-76
2021/05/09 07:33:03;;;;;;;3.27;2.97;;;;;;;;;;5133119;27;20458;-76
2021/05/09 07:35:29;;;;;;;3.77;3.47;;;;;;;;;;5133152;27;20887;-75
2021/05/09 07:37:55;;;;;;;4.93;3.67;;;;;;;;;;5132362;27;20434;-76
2021/05/09 07:40:21;;;;;;;4.43;3.00;;;;;;;;;;5113607;27;20471;-77
2021/05/09 07:42:47;;;;;;;3.40;3.10;;;;;;;;;;5132901;27;20406;-75
2021/05/09 07:45:16;;;;;;;3.40;3.10;;;;;;;;;;5133168;27;20441;-77
2021/05/09 07:47:43;;;;;;;3.57;3.00;;;;;;;;;;5126405;27;20757;-76
2021/05/09 07:50:09;;;;;;;4.53;3.10;;;;;;;;;;5113299;27;20416;-77
2021/05/09 07:52:36;;;;;;;3.60;3.30;;;;;;;;;;5133298;27;20418;-77
2021/05/09 07:55:02;;;;;;;4.20;3.67;;;;;;;;;;5132811;27;20412;-74
2021/05/09 07:57:28;;;;;;;3.60;3.23;;;;;;;;;;5132715;27;20756;-78
2021/05/09 07:59:54;;;;;;;3.93;3.00;;;;;;;;;;5132435;27;20962;-75
2021/05/09 08:02:20;;;;;;;3.47;3.00;;;;;;;;;;5132537;27;20416;-77
2021/05/09 08:04:47;;;;;;;4.10;3.00;;;;;;;;;;5132681;27;20499;-77
2021/05/09 08:07:13;;;;;;;3.53;2.83;;;;;;;;;;5133009;27;20407;-76
2021/05/09 08:09:39;;;;;;;3.97;3.33;;;;;;;;;;5132348;27;20442;-78
2021/05/09 08:12:05;;;;;;;3.33;3.03;;;;;;;;;;5133084;27;20416;-77
2021/05/09 08:14:31;;;;;;;4.10;3.33;;;;;;;;;;5118112;27;20432;-78
2021/05/09 08:16:57;;;;;;;4.30;2.83;;;;;;;;;;5114723;27;20793;-76
2021/05/09 08:19:23;;;;;;;3.37;3.07;;;;;;;;;;5108762;27;20533;-75
2021/05/09 08:21:50;;;;;;;3.20;2.90;;;;;;;;;;5132980;27;20798;-77
2021/05/09 08:24:17;;;;;;;3.40;3.10;;;;;;;;;;5105695;27;20505;-76
2021/05/09 08:26:43;;;;;;;3.33;3.03;;;;;;;;;;5132903;27;20412;-76
2021/05/09 08:29:09;;;;;;;3.40;2.83;;;;;;;;;;5105492;27;20457;-75
2021/05/09 08:31:36;;;;;;;3.73;2.83;;;;;;;;;;5131180;27;20510;-76
2021/05/09 08:34:02;;;;;;;3.73;2.63;;;;;;;;;;5123498;27;20427;-75
2021/05/09 08:36:28;;;;;;;3.80;2.53;;;;;;;;;;5132545;27;20471;-76
2021/05/09 08:38:54;;;;;;;4.07;2.80;;;;;;;;;;5115727;27;20479;-75
2021/05/09 08:41:20;;;;;;;3.23;2.90;;;;;;;;;;5121059;27;20422;-76
2021/05/09 08:43:46;;;;;;;5.70;2.90;;;;;;;;;;5128003;27;20429;-74
2021/05/09 08:46:12;;;;;;;3.20;2.73;;;;;;;;;;5132242;27;20441;-77
2021/05/09 08:48:38;;;;;;;3.30;2.70;;;;;;;;;;5115642;27;20472;-75
2021/05/09 08:51:04;;;;;;;4.50;2.60;;;;;;;;;;5120611;27;20967;-75
2021/05/09 08:53:31;;;;;;;3.83;2.87;;;;;;;;;;5107016;27;20453;-74
2021/05/09 08:55:57;;;;;;;2.90;2.53;;;;;;;;;;5132176;27;21139;-75
2021/05/09 08:58:23;;;;;;;2.83;2.63;;;;;;;;;;5110353;27;20473;-74
2021/05/09 09:00:49;;;;;;;3.07;2.70;;;;;;;;;;5130735;27;20415;-76
2021/05/09 09:03:15;;;;;;;4.37;2.70;;;;;;;;;;5113519;27;20429;-78
2021/05/09 09:05:45;;;;;;;4.80;3.10;;;;;;;;;;5131914;27;20534;-75
2021/05/09 09:08:11;;;;;;;2.73;2.53;;;;;;;;;;5117330;27;20456;-76
2021/05/09 09:10:41;;;;;;;2.90;2.50;;;;;;;;;;5131911;27;20734;-75
2021/05/09 09:13:25;;;;;;;4.53;2.77;;;;;;;;;;5124715;27;20559;-76
2021/05/09 09:15:54;;;;;;;5.33;2.70;;;;;;;;;;5123842;27;20427;-75
2021/05/09 09:18:39;;;;;;;3.47;3.00;;;;;;;;;;5124723;27;20462;-76
2021/05/09 09:21:23;;;;;;;2.53;2.20;;;;;;;;;;5131791;27;20407;-76
2021/05/09 09:23:53;;;;;;;5.03;2.60;;;;;;;;;;5116325;27;20416;-75
2021/05/09 09:26:26;;;;;;;2.80;2.40;;;;;;;;;;5116064;27;20419;-76
2021/05/09 09:28:52;;;;;;;4.73;2.90;;;;;;;;;;5103551;27;20429;-76
2021/05/09 09:31:34;;;;;;;3.07;2.77;;;;;;;;;;5130026;27;20522;-76
2021/05/09 09:34:00;;;;;;;2.97;2.67;;;;;;;;;;5117183;27;20412;-77
2021/05/09 09:36:26;;;;;;;3.57;3.00;;;;;;;;;;5116872;27;20904;-74
2021/05/09 09:38:52;;;;;;;2.60;2.40;;;;;;;;;;5116165;27;20468;-75
2021/05/09 09:41:20;;;;;;;3.60;2.57;;;;;;;;;;5110496;28;20420;-77
2021/05/09 09:44:09;;;;;;;3.27;2.70;;;;;;;;;;5110400;28;20431;-77
2021/05/09 09:46:36;;;;;;;4.90;2.53;;;;;;;;;;5110623;28;20415;-76
2021/05/09 09:49:03;;;;;;;3.87;2.87;;;;;;;;;;5127118;27;20450;-76
2021/05/09 09:51:30;;;;;;;2.90;2.40;;;;;;;;;;5119980;27;20412;-76
2021/05/09 09:53:57;;;;;;;4.33;2.87;;;;;;;;;;5127083;27;20447;-74
2021/05/09 09:56:26;;;;;;;2.70;2.23;;;;;;;;;;5114966;27;20510;-73
2021/05/09 09:58:52;;;;;;;2.63;2.43;;;;;;;;;;5117569;27;20495;-75
2021/05/09 10:01:27;;;;;;;2.63;2.43;;;;;;;;;;5121441;27;20964;-74
2021/05/09 10:03:55;;;;;;;2.97;2.37;;;;;;;;;;5103445;27;20562;-74
2021/05/09 10:06:21;;;;;;;2.90;2.40;;;;;;;;;;5130637;27;20431;-74
2021/05/09 10:08:47;;;;;;;3.20;2.23;;;;;;;;;;5107426;27;20439;-75
2021/05/09 10:11:13;;;;;;;3.70;2.20;;;;;;;;;;5128851;27;20416;-74
2021/05/09 10:13:39;;;;;;;2.93;2.20;;;;;;;;;;5118873;27;20423;-74
2021/05/09 10:16:06;;;;;;;2.47;1.80;;;;;;;;;;5122393;27;20415;-73
2021/05/09 10:18:33;;;;;;;2.57;2.10;;;;;;;;;;5122434;27;20467;-74
2021/05/09 10:20:59;;;;;;;2.90;2.40;;;;;;;;;;5123507;27;20422;-74
2021/05/09 10:23:25;;;;;;;3.97;2.70;;;;;;;;;;5128774;27;20411;-75
2021/05/09 10:25:56;;;;;;;2.63;2.43;;;;;;;;;;5126693;27;20408;-76
2021/05/09 10:28:26;;;;;;;2.50;2.20;;;;;;;;;;5118986;27;20428;-74
2021/05/09 10:30:56;;;;;;;2.53;2.33;;;;;;;;;;5109447;28;20439;-75
2021/05/09 10:33:40;;;;;;;2.50;2.30;;;;;;;;;;5125273;27;20404;-75
2021/05/09 10:36:11;;;;;;;2.10;1.90;;;;;;;;;;5102244;27;20907;-75
2021/05/09 10:38:55;;;;;;;2.60;2.17;;;;;;;;;;5123651;28;20432;-75
2021/05/09 10:41:21;;;;;;;2.23;1.90;;;;;;;;;;5107651;27;20483;-75
2021/05/09 10:43:47;;;;;;;2.90;2.03;;;;;;;;;;5130319;28;20411;-75
2021/05/09 10:46:13;;;;;;;2.77;2.17;;;;;;;;;;5114081;28;20526;-76
2021/05/09 10:48:39;;;;;;;2.30;2.10;;;;;;;;;;5126215;28;20993;-77
2021/05/09 10:51:05;;;;;;;2.40;1.93;;;;;;;;;;5124678;28;20435;-75
2021/05/09 10:53:34;;;;;;;2.40;1.87;;;;;;;;;;5129581;28;20416;-75
2021/05/09 10:56:04;;;;;;;2.20;1.80;;;;;;;;;;5125749;28;20414;-75
2021/05/09 10:58:39;;;;;;;2.37;2.17;;;;;;;;;;5130059;28;20445;-75
2021/05/09 11:01:08;;;;;;;2.60;2.13;;;;;;;;;;5129580;28;20476;-76
2021/05/09 11:03:37;;;;;;;2.83;2.00;;;;;;;;;;5125040;28;20438;-75
2021/05/09 11:06:04;;;;;;;2.60;2.13;;;;;;;;;;5102872;28;20939;-76
2021/05/09 11:08:47;;;;;;;2.83;1.80;;;;;;;;;;5109600;28;20467;-75
2021/05/09 11:11:20;;;;;;;2.10;1.80;;;;;;;;;;5108772;28;20404;-75
2021/05/09 11:14:13;;;;;;;3.20;1.90;;;;;;;;;;5125563;28;20408;-73
2021/05/09 11:16:40;;;;;;;2.13;1.87;;;;;;;;;;5117217;28;20458;-73
2021/05/09 11:19:06;;;;;;;2.97;1.87;;;;;;;;;;5125324;28;20431;-75
2021/05/09 11:21:33;;;;;;;2.13;1.90;;;;;;;;;;5118754;28;20947;-77
2021/05/09 11:23:59;;;;;;;2.20;1.80;;;;;;;;;;5128423;28;20507;-75
2021/05/09 11:26:26;;;;;;;2.03;1.83;;;;;;;;;;5118898;28;20427;-76
2021/05/09 11:29:05;;;;;;;2.60;2.03;;;;;;;;;;5114585;28;20456;-76
2021/05/09 11:31:31;;;;;;;5.13;1.87;;;;;;;;;;5125870;28;20419;-75
2021/05/09 11:33:57;;;;;;;3.13;1.97;;;;;;;;;;5115940;28;20421;-74
2021/05/09 11:36:26;;;;;;;2.17;1.97;;;;;;;;;;5111434;28;20446;-73
2021/05/09 11:39:03;;;;;;;2.67;2.23;;;;;;;;;;5118562;28;20447;-76
2021/05/09 11:41:29;;;;;;;2.30;1.80;;;;;;;;;;5126399;28;20832;-74
2021/05/09 11:44:01;;;;;;;3.50;2.20;;;;;;;;;;5124426;28;20548;-74
2021/05/09 11:46:33;;;;;;;2.50;1.90;;;;;;;;;;5128062;28;20194;-75
2021/05/09 11:49:14;;;;;;;2.03;1.80;;;;;;;;;;5124898;28;20507;-73
2021/05/09 11:51:47;;;;;;;2.03;1.80;;;;;;;;;;5117183;27;20422;-76
2021/05/09 11:54:13;;;;;;;2.63;1.90;;;;;;;;;;5128742;27;20420;-75
2021/05/09 11:56:49;;;;;;;3.73;3.50;;;;;;;;;;5112459;28;20469;-74
2021/05/09 11:59:27;;;;;;;3.80;2.30;;;;;;;;;;5129615;27;20446;-74
2021/05/09 12:01:53;;;;;;;2.40;1.93;;;;;;;;;;5128135;27;20416;-76
2021/05/09 12:04:19;;;;;;;2.40;2.00;;;;;;;;;;5111859;28;21174;-74
2021/05/09 12:06:45;;;;;;;2.40;2.20;;;;;;;;;;5125578;27;20449;-76
2021/05/09 12:09:12;;;;;;;2.50;2.30;;;;;;;;;;5108880;27;20466;-76
2021/05/09 12:11:40;;;;;;;2.53;2.10;;;;;;;;;;5124290;27;20846;-76
2021/05/09 12:14:06;;;;;;;2.10;1.70;;;;;;;;;;5113603;27;20431;-75
2021/05/09 12:16:41;;;;;;;2.40;2.00;;;;;;;;;;5120646;27;20461;-76
2021/05/09 12:19:07;;;;;;;2.63;1.93;;;;;;;;;;5132265;27;20467;-76
2021/05/09 12:21:33;;;;;;;2.30;1.90;;;;;;;;;;5130304;27;20498;-74
2021/05/09 12:24:06;;;;;;;4.13;2.17;;;;;;;;;;5132537;27;20491;-75
2021/05/09 12:26:32;;;;;;;2.60;1.87;;;;;;;;;;5105403;27;20532;-77
2021/05/09 12:29:17;;;;;;;2.73;1.87;;;;;;;;;;5115990;27;20563;-76
2021/05/09 12:31:43;;;;;;;1.90;1.60;;;;;;;;;;5107345;27;20438;-74
2021/05/09 12:34:12;;;;;;;2.87;2.07;;;;;;;;;;5120010;27;20423;-75
2021/05/09 12:36:39;;;;;;;2.53;2.00;;;;;;;;;;5110890;27;20435;-75
2021/05/09 12:39:22;;;;;;;2.97;2.00;;;;;;;;;;5121508;27;21256;-74
2021/05/09 12:41:52;;;;;;;2.30;1.83;;;;;;;;;;5111733;27;20423;-76
2021/05/09 12:44:22;;;;;;;3.33;2.00;;;;;;;;;;5131736;27;20835;-74
2021/05/09 12:46:48;;;;;;;2.40;1.90;;;;;;;;;;5109739;27;20750;-77
2021/05/09 12:49:21;;;;;;;4.67;2.13;;;;;;;;;;5127097;27;20459;-75
2021/05/09 12:51:58;;;;;;;2.33;1.83;;;;;;;;;;5115348;27;20577;-75
2021/05/09 12:54:39;;;;;;;4.20;2.20;;;;;;;;;;5129391;27;20572;-75
2021/05/09 12:57:14;;;;;;;2.23;1.93;;;;;;;;;;5118638;27;20431;-77
2021/05/09 12:59:57;;;;;;;3.10;2.50;;;;;;;;;;5130976;27;20430;-74
2021/05/09 13:02:26;;;;;;;2.03;1.83;;;;;;;;;;5120066;27;20396;-76
2021/05/09 13:04:58;;;;;;;2.53;1.90;;;;;;;;;;5128287;27;20462;-76
2021/05/09 13:07:26;;;;;;;2.63;2.20;;;;;;;;;;5128261;27;21001;-76
2021/05/09 13:09:52;;;;;;;2.10;1.60;;;;;;;;;;5130072;27;20565;-74
2021/05/09 13:12:21;;;;;;;4.30;2.30;;;;;;;;;;5128341;27;20411;-75
2021/05/09 13:14:51;;;;;;;2.27;1.80;;;;;;;;;;5115301;27;20567;-74
2021/05/09 13:17:18;;;;;;;3.00;2.70;;;;;;;;;;5118780;27;20415;-77
2021/05/09 13:19:44;;;;;;;2.70;2.30;;;;;;;;;;5124052;27;20772;-78
2021/05/09 13:22:17;;;;;;;2.87;2.20;;;;;;;;;;5112433;27;20420;-77
2021/05/09 13:24:46;;;;;;;2.53;2.10;;;;;;;;;;5125579;27;20892;-76
2021/05/09 13:27:15;;;;;;;2.30;1.90;;;;;;;;;;5122677;27;20416;-76
2021/05/09 13:29:43;;;;;;;2.53;2.33;;;;;;;;;;5111316;27;20495;-77
2021/05/09 13:32:09;;;;;;;2.50;2.27;;;;;;;;;;5123576;27;20432;-75
2021/05/09 13:34:35;;;;;;;2.47;1.70;;;;;;;;;;5110388;28;20428;-77
2021/05/09 13:37:01;;;;;;;2.10;1.87;;;;;;;;;;5119907;27;20425;-78
2021/05/09 13:39:27;;;;;;;2.50;2.30;;;;;;;;;;5115211;27;20578;-76
2021/05/09 13:41:53;;;;;;;2.60;2.40;;;;;;;;;;5126879;27;20443;-75
2021/05/09 13:44:20;;;;;;;3.53;2.20;;;;;;;;;;5110107;28;20425;-78
2021/05/09 13:46:48;;;;;;;2.37;2.10;;;;;;;;;;5125457;27;20447;-75
2021/05/09 13:49:14;;;;;;;3.90;2.07;;;;;;;;;;5110034;28;20883;-75
2021/05/09 13:51:40;;;;;;;2.33;2.13;;;;;;;;;;5125166;27;20414;-76
2021/05/09 13:54:06;;;;;;;3.27;2.00;;;;;;;;;;5110278;28;21171;-77
2021/05/09 13:56:33;;;;;;;2.40;2.10;;;;;;;;;;5125116;27;21101;-74
2021/05/09 13:59:01;;;;;;;2.53;2.23;;;;;;;;;;5107801;27;20496;-75
2021/05/09 14:01:30;;;;;;;2.73;2.03;;;;;;;;;;5129804;27;21071;-75
2021/05/09 14:03:56;;;;;;;2.93;2.40;;;;;;;;;;5101607;28;20417;-76
2021/05/09 14:06:26;;;;;;;2.37;2.00;;;;;;;;;;5126217;27;20931;-74
2021/05/09 14:08:52;;;;;;;2.73;1.83;;;;;;;;;;5117135;27;20463;-75
2021/05/09 14:11:18;;;;;;;2.10;1.80;;;;;;;;;;5123283;27;20516;-75
2021/05/09 14:13:44;;;;;;;2.50;1.90;;;;;;;;;;5121042;27;21058;-77
2021/05/09 14:16:10;;;;;;;2.80;1.90;;;;;;;;;;5104924;27;21177;-73
2021/05/09 14:18:36;;;;;;;2.20;1.83;;;;;;;;;;5115919;27;20423;-76
2021/05/09 14:21:05;;;;;;;1.90;1.70;;;;;;;;;;5122967;27;20417;-76
2021/05/09 14:23:33;;;;;;;2.73;1.90;;;;;;;;;;5116054;27;20407;-75
2021/05/09 14:25:59;;;;;;;2.67;1.90;;;;;;;;;;5110847;27;20416;-76
2021/05/09 14:28:27;;;;;;;2.50;1.80;;;;;;;;;;5118209;27;20804;-74
2021/05/09 14:30:55;;;;;;;2.00;1.70;;;;;;;;;;5109800;27;20473;-75
2021/05/09 14:33:21;;;;;;;3.13;1.80;;;;;;;;;;5124891;27;20413;-77
2021/05/09 14:35:49;;;;;;;2.30;1.80;;;;;;;;;;5111371;27;20426;-73
2021/05/09 14:38:15;;;;;;;3.40;1.80;;;;;;;;;;5126810;27;20523;-74
2021/05/09 14:40:43;;;;;;;2.30;1.83;;;;;;;;;;5121225;28;20458;-76
2021/05/09 14:43:09;;;;;;;2.00;1.70;;;;;;;;;;5129890;28;20891;-76
2021/05/09 14:45:37;;;;;;;2.90;1.80;;;;;;;;;;5125121;28;20518;-76
2021/05/09 14:48:06;;;;;;;2.10;1.73;;;;;;;;;;5129714;28;20462;-75